sensor_id;sensor_type;location;lat;lon;timestamp;pressure;altitude;pressure_sealevel;temperature;humidity
59757;BME280;45631;51.962;5.974;2023-07-24T00:02:27;100312.28;;;18.07;100.00
59757;BME280;45631;51.962;5.974;2023-07-24T00:04:56;100303.00;;;18.12;100.00
59757;BME280;45631;51.962;5.974;2023-07-24T00:07:24;100289.84;;;18.10;100.00
59757;BME280;45631;51.962;5.974;2023-07-24T00:09:53;100301.66;;;18.07;100.00
59757;BME280;45631;51.962;5.974;2023-07-24T00:12:22;100290.84;;;18.09;100.00
59757;BME280;45631;51.962;5.974;2023-07-24T00:14:53;100297.50;;;18.05;100.00
59757;BME280;45631;51.962;5.974;2023-07-24T00:17:21;100297.66;;;18.12;100.00
59757;BME280;45631;51.962;5.974;2023-07-24T00:19:50;100297.34;;;18.06;100.00
59757;BME280;45631;51.962;5.974;2023-07-24T00:22:18;100294.69;;;18.06;100.00
59757;BME280;45631;51.962;5.974;2023-07-24T00:24:46;100287.88;;;18.04;100.00
59757;BME280;45631;51.962;5.974;2023-07-24T00:27:15;100279.88;;;18.04;100.00
59757;BME280;45631;51.962;5.974;2023-07-24T00:29:43;100281.22;;;18.08;100.00
59757;BME280;45631;51.962;5.974;2023-07-24T00:32:13;100279.19;;;18.02;100.00
59757;BME280;45631;51.962;5.974;2023-07-24T00:34:41;100281.69;;;18.03;100.00
59757;BME280;45631;51.962;5.974;2023-07-24T00:37:09;100285.03;;;18.05;100.00
59757;BME280;45631;51.962;5.974;2023-07-24T00:39:37;100272.38;;;17.99;100.00
59757;BME280;45631;51.962;5.974;2023-07-24T00:42:06;100274.88;;;18.01;100.00
59757;BME280;45631;51.962;5.974;2023-07-24T00:44:34;100262.72;;;17.98;100.00
59757;BME280;45631;51.962;5.974;2023-07-24T00:47:03;100260.56;;;18.02;100.00
59757;BME280;45631;51.962;5.974;2023-07-24T00:49:34;100267.91;;;18.00;100.00
59757;BME280;45631;51.962;5.974;2023-07-24T00:52:03;100259.75;;;18.01;100.00
59757;BME280;45631;51.962;5.974;2023-07-24T00:54:32;100247.44;;;18.00;100.00
59757;BME280;45631;51.962;5.974;2023-07-24T00:57:03;100247.09;;;17.95;100.00
59757;BME280;45631;51.962;5.974;2023-07-24T00:59:32;100245.41;;;17.94;100.00
59757;BME280;45631;51.962;5.974;2023-07-24T01:02:03;100241.13;;;17.93;100.00
59757;BME280;45631;51.962;5.974;2023-07-24T01:04:33;100229.75;;;17.91;100.00
59757;BME280;45631;51.962;5.974;2023-07-24T01:07:02;100225.41;;;17.90;100.00
59757;BME280;45631;51.962;5.974;2023-07-24T01:09:30;100224.59;;;17.89;100.00
59757;BME280;45631;51.962;5.974;2023-07-24T01:12:02;100221.13;;;17.89;100.00
59757;BME280;45631;51.962;5.974;2023-07-24T01:14:39;100217.94;;;17.85;100.00
59757;BME280;45631;51.962;5.974;2023-07-24T01:17:14;100233.75;;;17.87;100.00
59757;BME280;45631;51.962;5.974;2023-07-24T01:19:47;100223.94;;;17.87;100.00
59757;BME280;45631;51.962;5.974;2023-07-24T01:22:25;100225.59;;;17.88;100.00
59757;BME280;45631;51.962;5.974;2023-07-24T01:25:09;100216.97;;;17.86;100.00
59757;BME280;45631;51.962;5.974;2023-07-24T01:27:42;100213.94;;;17.81;100.00
59757;BME280;45631;51.962;5.974;2023-07-24T01:30:11;100216.09;;;17.78;100.00
59757;BME280;45631;51.962;5.974;2023-07-24T01:32:39;100214.94;;;17.80;100.00
59757;BME280;45631;51.962;5.974;2023-07-24T01:35:08;100207.47;;;17.76;100.00
59757;BME280;45631;51.962;5.974;2023-07-24T01:37:36;100200.97;;;17.78;100.00
59757;BME280;45631;51.962;5.974;2023-07-24T01:40:08;100206.31;;;17.78;100.00
59757;BME280;45631;51.962;5.974;2023-07-24T01:42:37;100208.47;;;17.83;100.00
59757;BME280;45631;51.962;5.974;2023-07-24T01:45:08;100206.31;;;17.86;100.00
59757;BME280;45631;51.962;5.974;2023-07-24T01:47:38;100195.69;;;17.86;100.00
59757;BME280;45631;51.962;5.974;2023-07-24T01:50:07;100187.53;;;17.88;100.00
59757;BME280;45631;51.962;5.974;2023-07-24T01:52:35;100182.38;;;17.86;100.00
59757;BME280;45631;51.962;5.974;2023-07-24T01:55:04;100178.59;;;17.97;100.00
59757;BME280;45631;51.962;5.974;2023-07-24T01:57:33;100181.53;;;17.86;100.00
59757;BME280;45631;51.962;5.974;2023-07-24T02:00:01;100170.91;;;17.86;100.00
59757;BME280;45631;51.962;5.974;2023-07-24T02:02:31;100172.09;;;17.83;100.00
59757;BME280;45631;51.962;5.974;2023-07-24T02:04:59;100171.06;;;17.84;100.00
59757;BME280;45631;51.962;5.974;2023-07-24T02:07:27;100164.25;;;17.82;100.00
59757;BME280;45631;51.962;5.974;2023-07-24T02:09:55;100168.56;;;17.83;100.00
59757;BME280;45631;51.962;5.974;2023-07-24T02:12:23;100161.91;;;17.79;100.00
59757;BME280;45631;51.962;5.974;2023-07-24T02:14:51;100171.41;;;17.81;100.00
59757;BME280;45631;51.962;5.974;2023-07-24T02:17:21;100181.03;;;17.82;100.00
59757;BME280;45631;51.962;5.974;2023-07-24T02:19:52;100169.56;;;17.82;100.00
59757;BME280;45631;51.962;5.974;2023-07-24T02:22:20;100173.06;;;17.82;100.00
59757;BME280;45631;51.962;5.974;2023-07-24T02:24:49;100163.75;;;17.78;100.00
59757;BME280;45631;51.962;5.974;2023-07-24T02:27:25;100162.59;;;17.81;100.00
59757;BME280;45631;51.962;5.974;2023-07-24T02:29:54;100164.91;;;17.84;100.00
59757;BME280;45631;51.962;5.974;2023-07-24T02:32:22;100163.09;;;17.84;100.00
59757;BME280;45631;51.962;5.974;2023-07-24T02:34:52;100150.63;;;17.85;100.00
59757;BME280;45631;51.962;5.974;2023-07-24T02:37:21;100145.47;;;17.83;100.00
59757;BME280;45631;51.962;5.974;2023-07-24T02:39:49;100151.81;;;17.90;100.00
59757;BME280;45631;51.962;5.974;2023-07-24T02:42:17;100154.63;;;17.89;100.00
59757;BME280;45631;51.962;5.974;2023-07-24T02:44:45;100148.28;;;17.90;100.00
59757;BME280;45631;51.962;5.974;2023-07-24T02:47:13;100142.31;;;17.88;100.00
59757;BME280;45631;51.962;5.974;2023-07-24T02:49:41;100145.81;;;17.88;100.00
59757;BME280;45631;51.962;5.974;2023-07-24T02:52:11;100147.31;;;17.91;100.00
59757;BME280;45631;51.962;5.974;2023-07-24T02:54:39;100144.16;;;17.87;100.00
59757;BME280;45631;51.962;5.974;2023-07-24T02:57:07;100137.81;;;17.88;100.00
59757;BME280;45631;51.962;5.974;2023-07-24T02:59:35;100136.66;;;17.83;100.00
59757;BME280;45631;51.962;5.974;2023-07-24T03:02:04;100137.34;;;17.85;100.00
59757;BME280;45631;51.962;5.974;2023-07-24T03:04:32;100133.19;;;17.82;100.00
59757;BME280;45631;51.962;5.974;2023-07-24T03:07:00;100141.31;;;17.81;100.00
59757;BME280;45631;51.962;5.974;2023-07-24T03:09:30;100129.53;;;17.83;100.00
59757;BME280;45631;51.962;5.974;2023-07-24T03:11:58;100135.34;;;17.87;100.00
59757;BME280;45631;51.962;5.974;2023-07-24T03:14:26;100131.16;;;17.84;100.00
59757;BME280;45631;51.962;5.974;2023-07-24T03:16:54;100124.84;;;17.77;100.00
59757;BME280;45631;51.962;5.974;2023-07-24T03:19:24;100123.00;;;17.69;100.00
59757;BME280;45631;51.962;5.974;2023-07-24T03:21:53;100118.53;;;17.70;100.00
59757;BME280;45631;51.962;5.974;2023-07-24T03:24:21;100118.19;;;17.73;100.00
59757;BME280;45631;51.962;5.974;2023-07-24T03:26:50;100115.38;;;17.74;100.00
59757;BME280;45631;51.962;5.974;2023-07-24T03:29:18;100101.09;;;17.67;100.00
59757;BME280;45631;51.962;5.974;2023-07-24T03:31:47;100106.06;;;17.62;100.00
59757;BME280;45631;51.962;5.974;2023-07-24T03:34:15;100121.66;;;17.65;100.00
59757;BME280;45631;51.962;5.974;2023-07-24T03:36:43;100124.66;;;17.62;100.00
59757;BME280;45631;51.962;5.974;2023-07-24T03:39:11;100119.34;;;17.62;100.00
59757;BME280;45631;51.962;5.974;2023-07-24T03:41:42;100118.34;;;17.63;100.00
59757;BME280;45631;51.962;5.974;2023-07-24T03:44:12;100111.88;;;17.66;100.00
59757;BME280;45631;51.962;5.974;2023-07-24T03:46:40;100107.91;;;17.70;100.00
59757;BME280;45631;51.962;5.974;2023-07-24T03:49:08;100098.44;;;17.67;100.00
59757;BME280;45631;51.962;5.974;2023-07-24T03:51:36;100089.47;;;17.68;100.00
59757;BME280;45631;51.962;5.974;2023-07-24T03:54:05;100084.63;;;17.64;100.00
59757;BME280;45631;51.962;5.974;2023-07-24T03:56:33;100092.13;;;17.68;100.00
59757;BME280;45631;51.962;5.974;2023-07-24T03:59:01;100084.78;;;17.62;100.00
59757;BME280;45631;51.962;5.974;2023-07-24T04:01:31;100083.78;;;17.55;100.00
59757;BME280;45631;51.962;5.974;2023-07-24T04:03:59;100094.72;;;17.52;100.00
59757;BME280;45631;51.962;5.974;2023-07-24T04:06:28;100101.72;;;17.53;100.00
59757;BME280;45631;51.962;5.974;2023-07-24T04:08:57;100103.19;;;17.47;100.00
59757;BME280;45631;51.962;5.974;2023-07-24T04:11:25;100099.19;;;17.35;100.00
59757;BME280;45631;51.962;5.974;2023-07-24T04:13:53;100105.97;;;17.29;100.00
59757;BME280;45631;51.962;5.974;2023-07-24T04:16:21;100099.69;;;17.30;100.00
59757;BME280;45631;51.962;5.974;2023-07-24T04:18:53;100104.34;;;17.36;100.00
59757;BME280;45631;51.962;5.974;2023-07-24T04:21:22;100098.50;;;17.33;100.00
59757;BME280;45631;51.962;5.974;2023-07-24T04:23:50;100103.66;;;17.26;100.00
59757;BME280;45631;51.962;5.974;2023-07-24T04:26:18;100098.00;;;17.29;100.00
59757;BME280;45631;51.962;5.974;2023-07-24T04:28:46;100106.63;;;17.23;100.00
59757;BME280;45631;51.962;5.974;2023-07-24T04:31:15;100105.63;;;17.24;100.00
59757;BME280;45631;51.962;5.974;2023-07-24T04:33:43;100101.63;;;17.20;100.00
59757;BME280;45631;51.962;5.974;2023-07-24T04:36:12;100100.31;;;17.24;100.00
59757;BME280;45631;51.962;5.974;2023-07-24T04:38:44;100090.50;;;17.16;100.00
59757;BME280;45631;51.962;5.974;2023-07-24T04:41:13;100089.16;;;17.20;100.00
59757;BME280;45631;51.962;5.974;2023-07-24T04:43:41;100097.81;;;17.22;100.00
59757;BME280;45631;51.962;5.974;2023-07-24T04:46:09;100102.00;;;17.25;100.00
59757;BME280;45631;51.962;5.974;2023-07-24T04:48:37;100105.97;;;17.21;100.00
59757;BME280;45631;51.962;5.974;2023-07-24T04:51:05;100106.63;;;17.23;100.00
59757;BME280;45631;51.962;5.974;2023-07-24T04:53:35;100104.47;;;17.18;100.00
59757;BME280;45631;51.962;5.974;2023-07-24T04:56:03;100111.44;;;17.19;100.00
59757;BME280;45631;51.962;5.974;2023-07-24T04:58:34;100113.25;;;17.19;100.00
59757;BME280;45631;51.962;5.974;2023-07-24T05:01:03;100109.78;;;17.27;100.00
59757;BME280;45631;51.962;5.974;2023-07-24T05:03:31;100109.97;;;17.25;100.00
59757;BME280;45631;51.962;5.974;2023-07-24T05:06:00;100113.09;;;17.20;100.00
59757;BME280;45631;51.962;5.974;2023-07-24T05:08:28;100114.91;;;17.20;100.00
59757;BME280;45631;51.962;5.974;2023-07-24T05:10:58;100112.09;;;17.21;100.00
59757;BME280;45631;51.962;5.974;2023-07-24T05:13:27;100115.25;;;17.17;100.00
59757;BME280;45631;51.962;5.974;2023-07-24T05:15:55;100118.41;;;17.20;100.00
59757;BME280;45631;51.962;5.974;2023-07-24T05:18:23;100118.41;;;17.20;100.00
59757;BME280;45631;51.962;5.974;2023-07-24T05:20:51;100117.25;;;17.23;100.00
59757;BME280;45631;51.962;5.974;2023-07-24T05:23:19;100122.56;;;17.23;100.00
59757;BME280;45631;51.962;5.974;2023-07-24T05:25:47;100115.44;;;17.23;100.00
59757;BME280;45631;51.962;5.974;2023-07-24T05:28:25;100120.75;;;17.23;100.00
59757;BME280;45631;51.962;5.974;2023-07-24T05:30:53;100124.41;;;17.22;100.00
59757;BME280;45631;51.962;5.974;2023-07-24T05:33:22;100123.88;;;17.19;100.00
59757;BME280;45631;51.962;5.974;2023-07-24T05:35:50;100117.56;;;17.20;100.00
59757;BME280;45631;51.962;5.974;2023-07-24T05:38:18;100126.22;;;17.22;100.00
59757;BME280;45631;51.962;5.974;2023-07-24T05:40:46;100126.38;;;17.20;100.00
59757;BME280;45631;51.962;5.974;2023-07-24T05:43:21;100127.22;;;17.21;100.00
59757;BME280;45631;51.962;5.974;2023-07-24T05:45:51;100123.88;;;17.19;100.00
59757;BME280;45631;51.962;5.974;2023-07-24T05:48:19;100133.88;;;17.25;100.00
59757;BME280;45631;51.962;5.974;2023-07-24T05:50:48;100130.69;;;17.21;100.00
59757;BME280;45631;51.962;5.974;2023-07-24T05:53:16;100127.69;;;17.16;100.00
59757;BME280;45631;51.962;5.974;2023-07-24T05:55:44;100129.03;;;17.20;100.00
59757;BME280;45631;51.962;5.974;2023-07-24T05:58:13;100135.84;;;17.23;100.00
59757;BME280;45631;51.962;5.974;2023-07-24T06:00:42;100140.50;;;17.21;100.00
59757;BME280;45631;51.962;5.974;2023-07-24T06:03:12;100142.31;;;17.20;100.00
59757;BME280;45631;51.962;5.974;2023-07-24T06:05:40;100140.50;;;17.21;100.00
59757;BME280;45631;51.962;5.974;2023-07-24T06:08:08;100140.16;;;17.24;100.00
59757;BME280;45631;51.962;5.974;2023-07-24T06:10:38;100148.97;;;17.24;100.00
59757;BME280;45631;51.962;5.974;2023-07-24T06:13:06;100143.00;;;17.22;100.00
59757;BME280;45631;51.962;5.974;2023-07-24T06:15:34;100146.50;;;17.31;100.00
59757;BME280;45631;51.962;5.974;2023-07-24T06:18:02;100151.34;;;17.36;100.00
59757;BME280;45631;51.962;5.974;2023-07-24T06:20:32;100149.00;;;17.33;100.00
59757;BME280;45631;51.962;5.974;2023-07-24T06:23:00;100147.53;;;17.38;100.00
59757;BME280;45631;51.962;5.974;2023-07-24T06:25:30;100148.22;;;17.49;100.00
59757;BME280;45631;51.962;5.974;2023-07-24T06:27:59;100149.88;;;17.50;100.00
59757;BME280;45631;51.962;5.974;2023-07-24T06:30:27;100146.25;;;17.51;100.00
59757;BME280;45631;51.962;5.974;2023-07-24T06:32:55;100134.59;;;17.52;100.00
59757;BME280;45631;51.962;5.974;2023-07-24T06:35:23;100131.94;;;17.52;100.00
59757;BME280;45631;51.962;5.974;2023-07-24T06:37:53;100126.97;;;17.57;100.00
59757;BME280;45631;51.962;5.974;2023-07-24T06:40:21;100147.09;;;17.68;100.00
59757;BME280;45631;51.962;5.974;2023-07-24T06:42:49;100139.63;;;17.71;100.00
59757;BME280;45631;51.962;5.974;2023-07-24T06:45:18;100143.97;;;17.81;100.00
59757;BME280;45631;51.962;5.974;2023-07-24T06:47:46;100148.47;;;17.88;100.00
59757;BME280;45631;51.962;5.974;2023-07-24T06:50:14;100154.16;;;17.94;100.00
59757;BME280;45631;51.962;5.974;2023-07-24T06:52:43;100155.31;;;17.99;100.00
59757;BME280;45631;51.962;5.974;2023-07-24T06:55:12;100158.50;;;18.03;100.00
59757;BME280;45631;51.962;5.974;2023-07-24T06:57:40;100160.63;;;17.99;100.00
59757;BME280;45631;51.962;5.974;2023-07-24T07:00:09;100161.66;;;18.06;100.00
59757;BME280;45631;51.962;5.974;2023-07-24T07:02:38;100167.47;;;18.10;100.00
59757;BME280;45631;51.962;5.974;2023-07-24T07:05:07;100160.66;;;18.16;100.00
59757;BME280;45631;51.962;5.974;2023-07-24T07:07:35;100168.47;;;18.09;100.00
59757;BME280;45631;51.962;5.974;2023-07-24T07:10:04;100167.81;;;17.99;100.00
59757;BME280;45631;51.962;5.974;2023-07-24T07:12:34;100172.97;;;18.08;100.00
59757;BME280;45631;51.962;5.974;2023-07-24T07:15:03;100172.16;;;18.16;100.00
59757;BME280;45631;51.962;5.974;2023-07-24T07:17:31;100164.63;;;18.20;100.00
59757;BME280;45631;51.962;5.974;2023-07-24T07:19:59;100156.66;;;18.28;100.00
59757;BME280;45631;51.962;5.974;2023-07-24T07:22:27;100168.16;;;18.37;100.00
59757;BME280;45631;51.962;5.974;2023-07-24T07:24:55;100163.97;;;18.51;100.00
59757;BME280;45631;51.962;5.974;2023-07-24T07:27:23;100172.91;;;18.66;100.00
59757;BME280;45631;51.962;5.974;2023-07-24T07:29:53;100172.44;;;18.71;100.00
59757;BME280;45631;51.962;5.974;2023-07-24T07:32:21;100169.06;;;18.77;100.00
59757;BME280;45631;51.962;5.974;2023-07-24T07:34:50;100172.25;;;18.81;100.00
59757;BME280;45631;51.962;5.974;2023-07-24T07:37:18;100163.84;;;19.08;100.00
59757;BME280;45631;51.962;5.974;2023-07-24T07:39:46;100169.47;;;19.22;100.00
59757;BME280;45631;51.962;5.974;2023-07-24T07:42:14;100158.41;;;19.33;100.00
59757;BME280;45631;51.962;5.974;2023-07-24T07:44:45;100170.75;;;19.34;100.00
59757;BME280;45631;51.962;5.974;2023-07-24T07:47:14;100164.41;;;19.35;100.00
59757;BME280;45631;51.962;5.974;2023-07-24T07:49:43;100165.91;;;19.38;100.00
59757;BME280;45631;51.962;5.974;2023-07-24T07:52:11;100164.28;;;19.29;100.00
59757;BME280;45631;51.962;5.974;2023-07-24T07:54:39;100167.91;;;19.36;100.00
59757;BME280;45631;51.962;5.974;2023-07-24T07:57:07;100163.59;;;19.35;100.00
59757;BME280;45631;51.962;5.974;2023-07-24T07:59:35;100166.63;;;19.55;100.00
59757;BME280;45631;51.962;5.974;2023-07-24T08:02:04;100158.72;;;19.70;100.00
59757;BME280;45631;51.962;5.974;2023-07-24T08:04:34;100158.19;;;19.83;100.00
59757;BME280;45631;51.962;5.974;2023-07-24T08:07:02;100157.75;;;19.94;100.00
59757;BME280;45631;51.962;5.974;2023-07-24T08:09:30;100167.19;;;20.05;100.00
59757;BME280;45631;51.962;5.974;2023-07-24T08:11:59;100160.00;;;20.05;100.00
59757;BME280;45631;51.962;5.974;2023-07-24T08:14:27;100157.00;;;20.08;100.00
59757;BME280;45631;51.962;5.974;2023-07-24T08:16:55;100155.44;;;20.14;100.00
59757;BME280;45631;51.962;5.974;2023-07-24T08:19:27;100163.28;;;19.92;100.00
59757;BME280;45631;51.962;5.974;2023-07-24T08:21:57;100164.28;;;19.91;100.00
59757;BME280;45631;51.962;5.974;2023-07-24T08:24:25;100152.72;;;19.99;100.00
59757;BME280;45631;51.962;5.974;2023-07-24T08:26:53;100158.19;;;20.06;100.00
59757;BME280;45631;51.962;5.974;2023-07-24T08:29:22;100157.38;;;20.20;100.00
59757;BME280;45631;51.962;5.974;2023-07-24T08:31:53;100156.94;;;20.17;100.00
59757;BME280;45631;51.962;5.974;2023-07-24T08:34:21;100159.25;;;20.20;100.00
59757;BME280;45631;51.962;5.974;2023-07-24T08:36:50;100170.91;;;20.19;100.00
59757;BME280;45631;51.962;5.974;2023-07-24T08:39:19;100160.88;;;20.44;100.00
59757;BME280;45631;51.962;5.974;2023-07-24T08:41:47;100163.38;;;20.22;100.00
59757;BME280;45631;51.962;5.974;2023-07-24T08:44:16;100165.69;;;20.25;100.00
59757;BME280;45631;51.962;5.974;2023-07-24T08:46:44;100171.34;;;20.07;100.00
59757;BME280;45631;51.962;5.974;2023-07-24T08:49:14;100162.16;;;20.10;100.00
59757;BME280;45631;51.962;5.974;2023-07-24T08:51:43;100162.59;;;20.37;100.00
59757;BME280;45631;51.962;5.974;2023-07-24T08:54:12;100169.97;;;20.35;100.00
59757;BME280;45631;51.962;5.974;2023-07-24T08:56:42;100155.66;;;20.66;100.00
59757;BME280;45631;51.962;5.974;2023-07-24T08:59:13;100156.13;;;20.84;100.00
59757;BME280;45631;51.962;5.974;2023-07-24T09:01:43;100151.47;;;21.01;100.00
59757;BME280;45631;51.962;5.974;2023-07-24T09:04:11;100157.81;;;21.00;100.00
59757;BME280;45631;51.962;5.974;2023-07-24T09:06:39;100145.06;;;21.17;100.00
59757;BME280;45631;51.962;5.974;2023-07-24T09:09:14;100145.84;;;21.48;100.00
59757;BME280;45631;51.962;5.974;2023-07-24T09:11:49;100131.56;;;21.77;100.00
59757;BME280;45631;51.962;5.974;2023-07-24T09:14:21;100140.28;;;21.64;100.00
59757;BME280;45631;51.962;5.974;2023-07-24T09:16:50;100146.72;;;21.70;100.00
59757;BME280;45631;51.962;5.974;2023-07-24T09:19:20;100128.13;;;21.83;100.00
59757;BME280;45631;51.962;5.974;2023-07-24T09:21:51;100139.41;;;22.00;100.00
59757;BME280;45631;51.962;5.974;2023-07-24T09:24:19;100131.09;;;21.95;100.00
59757;BME280;45631;51.962;5.974;2023-07-24T09:26:49;100121.03;;;22.19;100.00
59757;BME280;45631;51.962;5.974;2023-07-24T09:29:30;100127.94;;;22.06;100.00
59757;BME280;45631;51.962;5.974;2023-07-24T09:31:59;100120.09;;;22.33;100.00
59757;BME280;45631;51.962;5.974;2023-07-24T09:34:27;100110.69;;;22.37;100.00
59757;BME280;45631;51.962;5.974;2023-07-24T09:36:55;100108.56;;;22.33;100.00
59757;BME280;45631;51.962;5.974;2023-07-24T09:39:24;100104.31;;;22.38;100.00
59757;BME280;45631;51.962;5.974;2023-07-24T09:42:04;100102.75;;;22.29;100.00
59757;BME280;45631;51.962;5.974;2023-07-24T09:44:32;100108.78;;;22.59;100.00
59757;BME280;45631;51.962;5.974;2023-07-24T09:47:01;100103.72;;;22.78;100.00
59757;BME280;45631;51.962;5.974;2023-07-24T09:49:51;100104.25;;;23.02;100.00
59757;BME280;45631;51.962;5.974;2023-07-24T09:52:20;100098.59;;;23.25;100.00
59757;BME280;45631;51.962;5.974;2023-07-24T09:54:55;100105.66;;;23.39;100.00
59757;BME280;45631;51.962;5.974;2023-07-24T09:57:26;100110.69;;;23.07;100.00
59757;BME280;45631;51.962;5.974;2023-07-24T09:59:56;100091.41;;;22.90;100.00
59757;BME280;45631;51.962;5.974;2023-07-24T10:02:25;100087.50;;;22.93;100.00
59757;BME280;45631;51.962;5.974;2023-07-24T10:04:54;100089.34;;;22.86;100.00
59757;BME280;45631;51.962;5.974;2023-07-24T10:07:23;100093.84;;;22.78;100.00
59757;BME280;45631;51.962;5.974;2023-07-24T10:09:51;100093.44;;;22.82;100.00
59757;BME280;45631;51.962;5.974;2023-07-24T10:12:20;100089.97;;;22.88;100.00
59757;BME280;45631;51.962;5.974;2023-07-24T10:14:50;100084.16;;;22.77;100.00
59757;BME280;45631;51.962;5.974;2023-07-24T10:17:34;100080.13;;;22.60;100.00
59757;BME280;45631;51.962;5.974;2023-07-24T10:20:04;100074.41;;;22.70;100.00
59757;BME280;45631;51.962;5.974;2023-07-24T10:22:33;100078.94;;;22.69;100.00
59757;BME280;45631;51.962;5.974;2023-07-24T10:25:02;100065.34;;;22.36;100.00
59757;BME280;45631;51.962;5.974;2023-07-24T10:27:31;100057.84;;;22.53;100.00
59757;BME280;45631;51.962;5.974;2023-07-24T10:30:02;100055.06;;;22.74;100.00
59757;BME280;45631;51.962;5.974;2023-07-24T10:32:47;100051.00;;;22.85;100.00
59757;BME280;45631;51.962;5.974;2023-07-24T10:35:21;100047.97;;;22.60;100.00
59757;BME280;45631;51.962;5.974;2023-07-24T10:37:59;100060.81;;;22.71;100.00
59757;BME280;45631;51.962;5.974;2023-07-24T10:40:27;100069.69;;;22.72;100.00
59757;BME280;45631;51.962;5.974;2023-07-24T10:43:07;100067.81;;;22.72;100.00
59757;BME280;45631;51.962;5.974;2023-07-24T10:45:46;100068.63;;;22.66;100.00
59757;BME280;45631;51.962;5.974;2023-07-24T10:48:15;100069.81;;;22.57;100.00
59757;BME280;45631;51.962;5.974;2023-07-24T10:50:45;100075.22;;;22.64;100.00
59757;BME280;45631;51.962;5.974;2023-07-24T10:53:17;100091.00;;;22.52;100.00
59757;BME280;45631;51.962;5.974;2023-07-24T10:55:47;100078.53;;;22.37;100.00
59757;BME280;45631;51.962;5.974;2023-07-24T10:58:17;100084.13;;;22.42;100.00
59757;BME280;45631;51.962;5.974;2023-07-24T11:00:47;100085.56;;;22.38;100.00
59757;BME280;45631;51.962;5.974;2023-07-24T11:03:16;100087.94;;;22.26;100.00
59757;BME280;45631;51.962;5.974;2023-07-24T11:05:46;100089.81;;;22.04;100.00
59757;BME280;45631;51.962;5.974;2023-07-24T11:08:16;100104.81;;;21.99;100.00
59757;BME280;45631;51.962;5.974;2023-07-24T11:10:45;100113.41;;;21.94;100.00
59757;BME280;45631;51.962;5.974;2023-07-24T11:13:14;100115.69;;;22.19;100.00
59757;BME280;45631;51.962;5.974;2023-07-24T11:15:43;100126.03;;;21.78;100.00
59757;BME280;45631;51.962;5.974;2023-07-24T11:18:13;100125.78;;;21.73;100.00
59757;BME280;45631;51.962;5.974;2023-07-24T11:20:44;100127.81;;;21.93;100.00
59757;BME280;45631;51.962;5.974;2023-07-24T11:23:13;100112.88;;;22.05;100.00
59757;BME280;45631;51.962;5.974;2023-07-24T11:25:41;100119.97;;;22.13;100.00
59757;BME280;45631;51.962;5.974;2023-07-24T11:28:11;100113.16;;;22.10;100.00
59757;BME280;45631;51.962;5.974;2023-07-24T11:30:40;100119.31;;;22.11;100.00
59757;BME280;45631;51.962;5.974;2023-07-24T11:33:10;100122.66;;;22.13;100.00
59757;BME280;45631;51.962;5.974;2023-07-24T11:35:42;100116.06;;;22.16;100.00
59757;BME280;45631;51.962;5.974;2023-07-24T11:38:11;100112.06;;;22.05;100.00
59757;BME280;45631;51.962;5.974;2023-07-24T11:40:40;100103.31;;;22.18;100.00
59757;BME280;45631;51.962;5.974;2023-07-24T11:43:15;100089.81;;;22.33;100.00
59757;BME280;45631;51.962;5.974;2023-07-24T11:45:45;100094.50;;;22.24;100.00
59757;BME280;45631;51.962;5.974;2023-07-24T11:48:15;100085.31;;;22.05;100.00
59757;BME280;45631;51.962;5.974;2023-07-24T11:50:46;100074.03;;;21.88;100.00
59757;BME280;45631;51.962;5.974;2023-07-24T11:53:19;100081.19;;;21.81;100.00
59757;BME280;45631;51.962;5.974;2023-07-24T11:55:49;100082.81;;;22.03;100.00
59757;BME280;45631;51.962;5.974;2023-07-24T11:58:18;100073.59;;;22.34;100.00
59757;BME280;45631;51.962;5.974;2023-07-24T12:00:48;100072.16;;;22.38;100.00
59757;BME280;45631;51.962;5.974;2023-07-24T12:03:19;100075.91;;;22.44;100.00
59757;BME280;45631;51.962;5.974;2023-07-24T12:05:49;100085.03;;;22.50;100.00
59757;BME280;45631;51.962;5.974;2023-07-24T12:08:19;100087.66;;;22.43;100.00
59757;BME280;45631;51.962;5.974;2023-07-24T12:10:50;100094.84;;;22.42;100.00
59757;BME280;45631;51.962;5.974;2023-07-24T12:13:17;100089.00;;;22.32;100.00
59757;BME280;45631;51.962;5.974;2023-07-24T12:15:47;100089.78;;;22.54;100.00
59757;BME280;45631;51.962;5.974;2023-07-24T12:18:16;100093.41;;;22.75;100.00
59757;BME280;45631;51.962;5.974;2023-07-24T12:20:44;100099.69;;;22.54;100.00
59757;BME280;45631;51.962;5.974;2023-07-24T12:23:13;100088.91;;;22.82;100.00
59757;BME280;45631;51.962;5.974;2023-07-24T12:25:42;100092.38;;;23.18;100.00
59757;BME280;45631;51.962;5.974;2023-07-24T12:28:11;100080.34;;;23.07;100.00
59757;BME280;45631;51.962;5.974;2023-07-24T12:30:39;100085.75;;;23.13;100.00
59757;BME280;45631;51.962;5.974;2023-07-24T12:33:07;100075.47;;;23.17;100.00
59757;BME280;45631;51.962;5.974;2023-07-24T12:35:35;100086.03;;;23.32;100.00
59757;BME280;45631;51.962;5.974;2023-07-24T12:38:03;100077.41;;;23.57;100.00
59757;BME280;45631;51.962;5.974;2023-07-24T12:40:33;100065.88;;;23.70;100.00
59757;BME280;45631;51.962;5.974;2023-07-24T12:43:04;100057.81;;;23.50;100.00
59757;BME280;45631;51.962;5.974;2023-07-24T12:45:32;100047.06;;;23.50;100.00
59757;BME280;45631;51.962;5.974;2023-07-24T12:48:00;100047.91;;;23.70;100.00
59757;BME280;45631;51.962;5.974;2023-07-24T12:50:28;100058.47;;;23.92;100.00
59757;BME280;45631;51.962;5.974;2023-07-24T12:52:57;100059.66;;;24.29;100.00